Time;durP1;ratioP1;P1;durP2;ratioP2;P2;SDS_P1;SDS_P2;PMS_P1;PMS_P2;Temp;Humidity;BMP_temperature;BMP_pressure;BME280_temperature;BME280_humidity;BME280_pressure;Samples;Min_cycle;Max_cycle;Signal;HPM_P1;HPM_P2
2023/12/02 00:01:39;;;;;;;85.55;39.75;;;-2.40;99.90;;;;;;5073747;28;20039;-78
2023/12/02 00:04:04;;;;;;;85.03;37.45;;;-2.30;99.90;;;;;;5075226;28;20482;-75
2023/12/02 00:06:30;;;;;;;83.22;40.03;;;-2.30;99.90;;;;;;5073386;28;20028;-76
2023/12/02 00:08:55;;;;;;;82.60;36.22;;;-2.30;99.90;;;;;;5073581;28;20016;-79
2023/12/02 00:11:21;;;;;;;69.70;33.05;;;-2.30;99.90;;;;;;5074893;28;20843;-76
2023/12/02 00:13:47;;;;;;;65.30;36.28;;;-2.30;99.90;;;;;;5073775;28;20546;-75
2023/12/02 00:16:13;;;;;;;70.03;34.42;;;-2.30;99.90;;;;;;5073268;28;20024;-75
2023/12/02 00:18:39;;;;;;;71.70;34.40;;;-2.30;99.90;;;;;;5074996;28;20061;-75
2023/12/02 00:21:05;;;;;;;75.03;34.30;;;-2.30;99.90;;;;;;5073492;28;20035;-79
2023/12/02 00:23:31;;;;;;;69.18;34.30;;;-2.30;99.90;;;;;;5073599;28;20024;-75
2023/12/02 00:25:56;;;;;;;65.00;30.45;;;-2.30;99.90;;;;;;5074690;28;20021;-79
2023/12/02 00:28:22;;;;;;;67.25;30.70;;;-2.30;99.90;;;;;;5073411;28;20465;-75
2023/12/02 00:30:48;;;;;;;68.13;29.75;;;-2.30;99.90;;;;;;5073096;28;20454;-79
2023/12/02 00:33:14;;;;;;;57.30;29.33;;;-2.30;99.90;;;;;;5074575;28;20638;-76
2023/12/02 00:35:39;;;;;;;63.53;30.40;;;-2.30;99.90;;;;;;5073234;28;20029;-75
2023/12/02 00:38:05;;;;;;;64.05;29.52;;;-2.40;99.90;;;;;;5073158;28;20482;-79
2023/12/02 00:40:31;;;;;;;73.45;30.23;;;-2.40;99.90;;;;;;5074289;28;20071;-75
2023/12/02 00:42:56;;;;;;;57.03;25.52;;;-2.40;99.90;;;;;;5074406;28;20031;-76
2023/12/02 00:45:22;;;;;;;58.20;30.23;;;-2.40;99.90;;;;;;5073057;28;20064;-75
2023/12/02 00:47:48;;;;;;;69.10;28.30;;;-2.40;99.90;;;;;;5074398;28;20386;-75
2023/12/02 00:50:13;;;;;;;57.08;30.02;;;-2.40;99.90;;;;;;5072898;28;20020;-79
2023/12/02 00:52:39;;;;;;;69.30;31.92;;;-2.40;99.90;;;;;;5072856;28;20051;-79
2023/12/02 00:55:05;;;;;;;51.80;24.15;;;-2.40;99.90;;;;;;5072657;28;20082;-75
2023/12/02 00:57:31;;;;;;;60.63;27.90;;;-2.40;99.90;;;;;;5075538;28;20025;-75
2023/12/02 00:59:57;;;;;;;64.53;29.52;;;-2.40;99.90;;;;;;5072365;28;20033;-75
2023/12/02 01:02:22;;;;;;;69.60;32.13;;;-2.40;99.90;;;;;;5072633;28;20035;-77
2023/12/02 01:04:48;;;;;;;72.85;31.30;;;-2.40;99.90;;;;;;5072296;28;20063;-75
2023/12/02 01:07:14;;;;;;;66.78;31.92;;;-2.50;99.90;;;;;;5073877;28;20060;-78
2023/12/02 01:09:40;;;;;;;69.90;31.98;;;-2.50;99.90;;;;;;5073973;28;20021;-75
2023/12/02 01:12:06;;;;;;;68.22;32.95;;;-2.40;99.90;;;;;;5072558;28;20028;-79
2023/12/02 01:14:31;;;;;;;71.20;30.83;;;-2.40;99.90;;;;;;5073521;28;20021;-76
2023/12/02 01:16:57;;;;;;;67.35;29.23;;;-2.40;99.90;;;;;;5072483;28;20432;-79
2023/12/02 01:19:23;;;;;;;55.80;25.55;;;-2.40;99.90;;;;;;5071329;28;20486;-78
2023/12/02 01:21:48;;;;;;;72.32;31.75;;;-2.40;99.90;;;;;;5072354;28;20017;-78
2023/12/02 01:24:15;;;;;;;61.85;30.15;;;-2.40;99.90;;;;;;5073472;28;20498;-76
2023/12/02 01:26:40;;;;;;;58.45;28.48;;;-2.40;99.90;;;;;;5073427;28;20023;-76
2023/12/02 01:29:06;;;;;;;62.28;30.67;;;-2.50;99.90;;;;;;5071965;28;20456;-78
2023/12/02 01:31:32;;;;;;;59.55;27.88;;;-2.40;99.90;;;;;;5073121;28;20033;-78
2023/12/02 01:33:57;;;;;;;68.40;31.98;;;-2.40;99.90;;;;;;5071870;28;20080;-78
2023/12/02 01:36:23;;;;;;;75.80;30.23;;;-2.50;99.90;;;;;;5072048;28;20056;-78
2023/12/02 01:38:48;;;;;;;66.13;30.33;;;-2.50;99.90;;;;;;5071980;28;20462;-79
2023/12/02 01:41:14;;;;;;;72.68;35.72;;;-2.50;99.90;;;;;;5073278;28;20489;-78
2023/12/02 01:43:40;;;;;;;67.43;29.58;;;-2.50;99.90;;;;;;5058512;28;20561;-78
2023/12/02 01:46:06;;;;;;;83.53;39.40;;;-2.50;99.90;;;;;;5071253;28;20015;-76
2023/12/02 01:48:34;;;;;;;76.30;39.00;;;-2.50;99.90;;;;;;5072913;28;20024;-76
2023/12/02 01:51:00;;;;;;;76.80;38.22;;;-2.60;99.90;;;;;;5071587;28;20477;-76
2023/12/02 01:53:26;;;;;;;74.97;33.63;;;-2.60;99.90;;;;;;5071584;28;20025;-76
2023/12/02 01:55:52;;;;;;;73.70;34.53;;;-2.60;99.90;;;;;;5071594;28;20492;-78
2023/12/02 01:58:19;;;;;;;73.88;35.28;;;-2.60;99.90;;;;;;5073353;28;20111;-78
2023/12/02 02:00:45;;;;;;;70.90;31.02;;;-2.50;99.90;;;;;;5072720;28;20021;-76
2023/12/02 02:03:11;;;;;;;65.75;33.45;;;-2.60;99.90;;;;;;5071411;28;20115;-78
2023/12/02 02:05:38;;;;;;;58.90;28.75;;;-2.60;99.90;;;;;;5071197;28;20163;-76
2023/12/02 02:08:04;;;;;;;56.42;27.92;;;-2.60;99.90;;;;;;5072997;28;20462;-79
2023/12/02 02:10:30;;;;;;;60.90;30.20;;;-2.60;99.90;;;;;;5072583;28;20029;-79
2023/12/02 02:12:56;;;;;;;66.63;29.17;;;-2.60;99.90;;;;;;5072966;28;20488;-79
2023/12/02 02:15:21;;;;;;;66.05;30.33;;;-2.60;99.90;;;;;;5072183;28;20052;-75
2023/12/02 02:17:47;;;;;;;59.80;26.33;;;-2.60;99.90;;;;;;5071355;28;20516;-75
2023/12/02 02:20:13;;;;;;;55.90;23.85;;;-2.60;99.90;;;;;;5071300;28;20024;-78
2023/12/02 02:22:39;;;;;;;53.17;25.17;;;-2.60;99.90;;;;;;5072248;28;20036;-76
2023/12/02 02:25:05;;;;;;;59.05;27.90;;;-2.60;99.90;;;;;;5063760;28;20017;-79
2023/12/02 02:27:31;;;;;;;51.00;24.30;;;-2.60;99.90;;;;;;5065607;28;20386;-79
2023/12/02 02:29:57;;;;;;;53.13;25.88;;;-2.60;99.90;;;;;;5071329;28;20024;-78
2023/12/02 02:32:23;;;;;;;51.20;23.25;;;-2.60;99.90;;;;;;5070928;28;20051;-76
2023/12/02 02:34:49;;;;;;;41.63;20.70;;;-2.60;99.90;;;;;;5071337;28;20074;-75
2023/12/02 02:37:14;;;;;;;42.22;19.90;;;-2.70;99.90;;;;;;5072119;28;20442;-78
2023/12/02 02:39:40;;;;;;;39.35;19.40;;;-2.70;99.90;;;;;;5072538;28;20478;-75
2023/12/02 02:42:06;;;;;;;43.15;19.02;;;-2.70;99.90;;;;;;5070716;28;20378;-79
2023/12/02 02:44:36;;;;;;;38.83;17.58;;;-2.70;99.90;;;;;;5071301;28;20029;-76
2023/12/02 02:47:02;;;;;;;35.05;16.08;;;-2.70;99.90;;;;;;5070965;28;20363;-78
2023/12/02 02:49:28;;;;;;;33.55;15.63;;;-2.70;99.90;;;;;;5063968;28;20036;-78
2023/12/02 02:51:54;;;;;;;27.85;12.90;;;-2.80;99.90;;;;;;5067844;28;20096;-76
2023/12/02 02:54:19;;;;;;;29.13;14.57;;;-2.80;99.90;;;;;;5072343;28;20025;-78
2023/12/02 02:56:45;;;;;;;28.25;15.43;;;-2.80;99.90;;;;;;5070933;28;20025;-78
2023/12/02 02:59:11;;;;;;;30.23;15.48;;;-2.80;99.90;;;;;;5072560;28;20111;-76
2023/12/02 03:01:39;;;;;;;26.30;14.80;;;-2.80;99.90;;;;;;5070923;28;20027;-76
2023/12/02 03:04:05;;;;;;;33.00;15.40;;;-2.80;99.90;;;;;;5072157;28;20036;-79
2023/12/02 03:06:31;;;;;;;31.58;14.50;;;-2.80;99.90;;;;;;5071960;28;20390;-78
2023/12/02 03:08:56;;;;;;;28.25;12.88;;;-2.70;99.90;;;;;;5072228;28;20467;-78
2023/12/02 03:11:22;;;;;;;35.00;17.80;;;-2.70;99.90;;;;;;5071917;28;20025;-78
2023/12/02 03:13:48;;;;;;;36.17;17.80;;;-2.70;99.90;;;;;;5072394;28;20029;-79
2023/12/02 03:16:13;;;;;;;33.35;17.48;;;-2.70;99.90;;;;;;5071912;28;20024;-79
2023/12/02 03:18:39;;;;;;;37.80;17.33;;;-2.80;99.90;;;;;;5070998;28;20024;-79
2023/12/02 03:21:05;;;;;;;38.25;18.38;;;-2.80;99.90;;;;;;5072003;28;20031;-79
2023/12/02 03:23:30;;;;;;;42.15;21.05;;;-2.80;99.90;;;;;;5070770;28;20068;-79
2023/12/02 03:25:56;;;;;;;39.03;20.08;;;-2.80;99.90;;;;;;5070642;28;20050;-76
2023/12/02 03:28:23;;;;;;;44.30;21.92;;;-2.80;99.90;;;;;;5070774;28;20021;-76
2023/12/02 03:30:49;;;;;;;42.60;22.05;;;-2.90;99.90;;;;;;5071822;28;20095;-79
2023/12/02 03:33:15;;;;;;;47.90;20.88;;;-2.90;99.90;;;;;;5071996;28;20401;-76
2023/12/02 03:35:40;;;;;;;42.72;20.20;;;-2.90;99.90;;;;;;5070860;28;20024;-78
2023/12/02 03:38:06;;;;;;;42.22;21.42;;;-3.00;99.90;;;;;;5071951;28;20489;-78
2023/12/02 03:40:32;;;;;;;37.80;18.40;;;-2.90;99.90;;;;;;5071733;28;20786;-78
2023/12/02 03:42:58;;;;;;;37.58;16.88;;;-3.00;99.90;;;;;;5072384;28;20031;-78
2023/12/02 03:45:26;;;;;;;29.92;14.65;;;-3.00;99.90;;;;;;5074076;28;20114;-75
2023/12/02 03:47:51;;;;;;;37.67;17.35;;;-3.00;99.90;;;;;;5074303;28;20017;-76
2023/12/02 03:50:18;;;;;;;25.02;15.02;;;-3.00;99.90;;;;;;5073848;28;20023;-76
2023/12/02 03:52:44;;;;;;;35.92;18.15;;;-3.00;99.90;;;;;;5074174;28;20024;-75
2023/12/02 03:55:10;;;;;;;33.35;16.42;;;-3.00;99.90;;;;;;5073746;28;20031;-76
2023/12/02 03:57:36;;;;;;;30.80;14.38;;;-3.10;99.90;;;;;;5075313;28;20095;-78
2023/12/02 04:00:10;;;;;;;31.73;15.32;;;-3.10;99.90;;;;;;5074920;28;20032;-78
2023/12/02 04:02:37;;;;;;;28.50;14.43;;;-3.00;99.90;;;;;;5073980;28;20098;-76
2023/12/02 04:05:08;;;;;;;29.02;16.23;;;-3.00;99.90;;;;;;5073873;28;20378;-76
2023/12/02 04:07:34;;;;;;;29.48;14.60;;;-3.00;99.90;;;;;;5075442;28;20025;-78
2023/12/02 04:10:00;;;;;;;29.70;12.75;;;-3.10;99.90;;;;;;5075351;28;20020;-76
2023/12/02 04:12:26;;;;;;;24.02;12.82;;;-3.00;99.90;;;;;;5075070;28;20381;-78
2023/12/02 04:14:51;;;;;;;25.63;12.43;;;-3.10;99.90;;;;;;5074688;28;20021;-76
2023/12/02 04:17:17;;;;;;;29.88;14.35;;;-3.10;99.90;;;;;;5073579;28;20486;-78
2023/12/02 04:19:43;;;;;;;29.48;11.27;;;-3.10;99.90;;;;;;5074849;28;20016;-78
2023/12/02 04:22:09;;;;;;;28.45;13.13;;;-3.10;99.90;;;;;;5074767;28;20024;-76
2023/12/02 04:24:34;;;;;;;21.80;12.82;;;-3.10;99.90;;;;;;5073290;28;20166;-78
2023/12/02 04:27:00;;;;;;;21.15;10.80;;;-3.10;99.90;;;;;;5074682;28;20044;-78
2023/12/02 04:29:26;;;;;;;23.75;12.43;;;-3.10;99.90;;;;;;5073343;28;20020;-78
2023/12/02 04:31:51;;;;;;;23.27;11.57;;;-3.10;99.90;;;;;;5073036;28;20131;-77
2023/12/02 04:34:18;;;;;;;24.20;12.10;;;-3.10;99.90;;;;;;5056880;28;20044;-76
2023/12/02 04:36:44;;;;;;;23.98;11.93;;;-3.10;99.90;;;;;;5074712;28;20371;-76
2023/12/02 04:39:13;;;;;;;18.60;10.38;;;-3.20;99.90;;;;;;5074232;28;20036;-78
2023/12/02 04:41:38;;;;;;;25.25;13.27;;;-3.20;99.90;;;;;;5073264;28;20424;-76
2023/12/02 04:44:05;;;;;;;23.00;11.48;;;-3.20;99.90;;;;;;5073043;28;20077;-78
2023/12/02 04:46:31;;;;;;;23.55;12.32;;;-3.10;99.90;;;;;;5073072;28;20028;-76
2023/12/02 04:48:56;;;;;;;12.95;8.68;;;-3.20;99.90;;;;;;5071750;28;20024;-78
2023/12/02 04:51:22;;;;;;;24.52;11.52;;;-3.20;99.90;;;;;;5074290;28;20051;-76
2023/12/02 04:53:48;;;;;;;23.77;12.35;;;-3.20;99.90;;;;;;5074062;28;20033;-78
2023/12/02 04:56:13;;;;;;;21.05;11.60;;;-3.20;99.90;;;;;;5074032;28;20409;-79
2023/12/02 04:58:39;;;;;;;24.60;13.68;;;-3.20;99.90;;;;;;5072558;28;20028;-78
2023/12/02 05:01:05;;;;;;;30.45;13.02;;;-3.30;99.90;;;;;;5072885;28;20031;-76
2023/12/02 05:03:31;;;;;;;18.23;9.38;;;-3.30;99.90;;;;;;5072545;28;20090;-76
2023/12/02 05:05:56;;;;;;;25.55;12.38;;;-3.30;99.90;;;;;;5074032;28;20028;-76
2023/12/02 05:08:22;;;;;;;26.42;12.73;;;-3.30;99.90;;;;;;5073540;28;20037;-77
2023/12/02 05:10:47;;;;;;;29.75;14.77;;;-3.30;99.90;;;;;;5073949;28;20089;-76
2023/12/02 05:13:13;;;;;;;90.63;47.78;;;-3.40;99.90;;;;;;5073532;28;21428;-76
2023/12/02 05:15:39;;;;;;;26.95;14.18;;;-3.30;99.90;;;;;;5072409;28;20095;-79
2023/12/02 05:18:05;;;;;;;22.95;12.05;;;-3.40;99.90;;;;;;5073513;28;20020;-78
2023/12/02 05:20:31;;;;;;;17.40;9.18;;;-3.50;99.90;;;;;;5072397;28;20524;-76
2023/12/02 05:22:56;;;;;;;24.77;12.88;;;-3.50;99.90;;;;;;5072164;28;20040;-76
2023/12/02 05:25:22;;;;;;;27.45;12.40;;;-3.50;99.90;;;;;;5072404;28;20021;-77
2023/12/02 05:27:47;;;;;;;26.50;13.35;;;-3.60;99.90;;;;;;5072157;28;20120;-79
2023/12/02 05:30:14;;;;;;;27.90;12.95;;;-3.50;99.90;;;;;;5072155;28;20033;-78
2023/12/02 05:32:40;;;;;;;24.73;14.40;;;-3.60;99.90;;;;;;5072909;28;20110;-76
2023/12/02 05:35:08;;;;;;;49.22;26.02;;;-3.60;99.90;;;;;;5073495;28;20028;-76
2023/12/02 05:37:35;;;;;;;34.20;17.83;;;-3.60;99.90;;;;;;5073009;28;20013;-78
2023/12/02 05:40:00;;;;;;;30.00;13.52;;;-3.70;99.90;;;;;;5073383;28;20028;-77
2023/12/02 05:42:26;;;;;;;27.48;12.35;;;-3.70;99.90;;;;;;5071664;28;20028;-78
2023/12/02 05:44:52;;;;;;;23.30;12.60;;;-3.70;99.90;;;;;;5073536;28;20020;-78
2023/12/02 05:47:18;;;;;;;27.15;16.58;;;-3.80;99.90;;;;;;5071682;28;20021;-76
2023/12/02 05:49:44;;;;;;;25.20;12.35;;;-3.80;99.90;;;;;;5071916;28;20443;-76
2023/12/02 05:52:10;;;;;;;22.77;11.63;;;-3.80;99.90;;;;;;5071665;28;20096;-79
2023/12/02 05:54:35;;;;;;;23.17;11.88;;;-3.70;99.90;;;;;;5072971;28;20025;-78
2023/12/02 05:57:01;;;;;;;20.10;10.77;;;-3.70;99.90;;;;;;5072722;28;20029;-76
2023/12/02 05:59:27;;;;;;;23.17;11.82;;;-3.70;99.90;;;;;;5071805;28;20087;-76
2023/12/02 06:01:52;;;;;;;35.53;16.08;;;-3.70;99.90;;;;;;5071231;28;20044;-76
2023/12/02 06:04:18;;;;;;;26.58;13.20;;;-3.70;99.90;;;;;;5071561;28;20056;-76
2023/12/02 06:06:47;;;;;;;17.80;10.82;;;-3.70;99.90;;;;;;5072294;28;20498;-78
2023/12/02 06:09:13;;;;;;;16.35;7.95;;;-3.70;99.90;;;;;;5069107;28;20050;-76
2023/12/02 06:11:39;;;;;;;16.27;7.78;;;-3.70;99.90;;;;;;5064495;28;20016;-76
2023/12/02 06:14:05;;;;;;;21.83;10.02;;;-3.70;99.90;;;;;;5070875;28;20021;-75
2023/12/02 06:16:31;;;;;;;19.73;9.80;;;-3.70;99.90;;;;;;5071928;28;20540;-75
2023/12/02 06:18:57;;;;;;;15.05;8.98;;;-3.70;99.90;;;;;;5072488;28;20099;-75
2023/12/02 06:21:22;;;;;;;17.80;8.75;;;-3.70;99.90;;;;;;5072308;28;20066;-76
2023/12/02 06:23:51;;;;;;;18.25;9.40;;;-3.70;99.90;;;;;;5070366;28;20119;-76
2023/12/02 06:26:16;;;;;;;19.27;9.27;;;-3.70;99.90;;;;;;5070745;28;20052;-77
2023/12/02 06:28:42;;;;;;;20.77;10.88;;;-3.80;99.90;;;;;;5071423;28;20040;-76
2023/12/02 06:31:14;;;;;;;15.57;8.43;;;-3.70;99.90;;;;;;5072194;28;20082;-76
2023/12/02 06:33:39;;;;;;;15.27;8.55;;;-3.70;99.90;;;;;;5070867;28;20049;-79
2023/12/02 06:36:08;;;;;;;14.00;7.22;;;-3.70;99.90;;;;;;5071833;28;20029;-77
2023/12/02 06:38:35;;;;;;;17.42;8.38;;;-3.70;99.90;;;;;;5070348;28;20008;-76
2023/12/02 06:41:02;;;;;;;13.00;7.82;;;-3.70;99.90;;;;;;5070240;28;20082;-76
2023/12/02 06:43:28;;;;;;;21.80;10.82;;;-3.70;99.90;;;;;;5070885;28;20031;-76
2023/12/02 06:45:54;;;;;;;20.73;9.48;;;-3.70;99.90;;;;;;5070132;28;20024;-76
2023/12/02 06:48:19;;;;;;;20.08;10.20;;;-3.70;99.90;;;;;;5070634;28;20029;-76
2023/12/02 06:50:45;;;;;;;18.35;8.65;;;-3.70;99.90;;;;;;5069752;28;20111;-76
2023/12/02 06:53:13;;;;;;;18.42;10.73;;;-3.70;99.90;;;;;;5070294;28;20048;-77
2023/12/02 06:55:39;;;;;;;19.90;9.60;;;-3.70;99.90;;;;;;5069878;28;20016;-77
2023/12/02 06:58:05;;;;;;;25.63;13.27;;;-3.60;99.90;;;;;;5070954;28;20098;-77
2023/12/02 07:00:30;;;;;;;19.00;9.50;;;-3.70;99.90;;;;;;5071659;28;20459;-79
2023/12/02 07:02:56;;;;;;;26.75;11.88;;;-3.70;99.90;;;;;;5070272;28;20066;-77
2023/12/02 07:05:21;;;;;;;14.85;6.32;;;-3.60;99.90;;;;;;5071084;28;20067;-75
2023/12/02 07:07:47;;;;;;;25.55;10.10;;;-3.70;99.90;;;;;;5070141;28;20013;-79
2023/12/02 07:10:15;;;;;;;13.07;7.80;;;-3.70;99.90;;;;;;5070819;28;20023;-79
2023/12/02 07:12:41;;;;;;;20.67;9.85;;;-3.70;99.90;;;;;;5063973;28;20386;-79
2023/12/02 07:15:07;;;;;;;26.52;10.90;;;-3.70;99.90;;;;;;5067312;28;20028;-79
2023/12/02 07:17:33;;;;;;;17.15;7.95;;;-3.70;99.90;;;;;;5072575;28;20112;-79
2023/12/02 07:19:59;;;;;;;16.33;9.45;;;-3.80;99.90;;;;;;5072859;28;20760;-78
2023/12/02 07:22:25;;;;;;;17.02;7.60;;;-3.80;99.90;;;;;;5072124;28;20032;-75
2023/12/02 07:24:51;;;;;;;15.20;7.80;;;-3.80;99.90;;;;;;5072316;28;20019;-76
2023/12/02 07:27:16;;;;;;;10.52;7.35;;;-3.80;99.90;;;;;;5073227;28;20616;-76
2023/12/02 07:29:42;;;;;;;18.48;9.07;;;-3.80;99.90;;;;;;5061906;28;20012;-76
2023/12/02 07:32:07;;;;;;;19.38;9.30;;;-3.80;99.90;;;;;;5071413;28;20056;-77
2023/12/02 07:34:33;;;;;;;16.08;8.32;;;-3.80;99.90;;;;;;5072295;28;20019;-77
2023/12/02 07:36:59;;;;;;;45.42;28.90;;;-3.80;99.90;;;;;;5074084;28;20021;-79
2023/12/02 07:39:24;;;;;;;19.83;9.65;;;-3.90;99.90;;;;;;5074900;28;20024;-79
2023/12/02 07:41:50;;;;;;;25.38;11.90;;;-3.90;99.90;;;;;;5074072;28;20025;-79
2023/12/02 07:44:17;;;;;;;17.30;9.80;;;-3.80;99.90;;;;;;5072435;28;20068;-77
2023/12/02 07:46:42;;;;;;;21.75;9.95;;;-3.80;99.90;;;;;;5074118;28;20435;-79
2023/12/02 07:49:08;;;;;;;19.85;11.50;;;-3.90;99.90;;;;;;5075444;28;20099;-77
2023/12/02 07:51:34;;;;;;;21.13;9.90;;;-3.90;99.90;;;;;;5073623;28;20073;-76
2023/12/02 07:54:00;;;;;;;23.33;10.40;;;-3.90;99.90;;;;;;5072368;28;20020;-77
2023/12/02 07:56:25;;;;;;;24.17;12.80;;;-3.90;99.90;;;;;;5074624;28;20013;-77
2023/12/02 07:58:51;;;;;;;24.15;12.60;;;-3.90;99.90;;;;;;5076160;28;20024;-76
2023/12/02 08:01:17;;;;;;;22.48;9.63;;;-3.80;99.90;;;;;;5071620;28;20020;-76
2023/12/02 08:03:43;;;;;;;16.83;8.50;;;-3.80;99.90;;;;;;5072471;28;20032;-76
2023/12/02 08:06:09;;;;;;;19.92;9.77;;;-3.80;99.90;;;;;;5074776;28;20492;-77
2023/12/02 08:08:34;;;;;;;22.33;10.98;;;-3.80;99.90;;;;;;5073301;28;20028;-76
2023/12/02 08:11:00;;;;;;;17.35;9.57;;;-3.80;99.90;;;;;;5073704;28;20017;-79
2023/12/02 08:13:26;;;;;;;20.45;9.88;;;-3.80;99.90;;;;;;5078436;28;20029;-81
2023/12/02 08:15:51;;;;;;;20.10;9.05;;;-3.80;99.90;;;;;;5080084;28;20027;-80
2023/12/02 08:18:18;;;;;;;17.35;9.80;;;-3.70;99.90;;;;;;5072765;28;20367;-80
2023/12/02 08:20:45;;;;;;;24.60;11.82;;;-3.80;99.90;;;;;;5073508;28;20111;-77
2023/12/02 08:23:10;;;;;;;31.05;14.55;;;-3.80;99.90;;;;;;5056263;28;20115;-77
2023/12/02 08:25:36;;;;;;;25.38;12.25;;;-3.70;99.90;;;;;;5066508;28;20048;-77
2023/12/02 08:28:02;;;;;;;28.80;15.15;;;-3.70;99.90;;;;;;5073112;28;20078;-77
2023/12/02 08:30:27;;;;;;;32.72;14.38;;;-3.70;99.90;;;;;;5074239;28;20032;-80
2023/12/02 08:32:53;;;;;;;24.13;13.13;;;-3.70;99.90;;;;;;5073455;28;20032;-77
2023/12/02 08:35:18;;;;;;;30.02;12.43;;;-3.60;99.90;;;;;;5074535;28;20028;-80
2023/12/02 08:37:44;;;;;;;30.73;13.85;;;-3.60;99.90;;;;;;5074406;28;20474;-77
2023/12/02 08:40:10;;;;;;;41.33;17.42;;;-3.70;99.90;;;;;;5070829;28;20024;-76
2023/12/02 08:42:36;;;;;;;29.85;13.57;;;-3.60;99.90;;;;;;5070069;28;20024;-76
2023/12/02 08:45:02;;;;;;;23.95;11.13;;;-3.50;99.90;;;;;;5070535;28;20025;-76
2023/12/02 08:47:28;;;;;;;31.80;14.90;;;-3.50;99.90;;;;;;5071005;28;20023;-76
2023/12/02 08:49:54;;;;;;;31.13;17.60;;;-3.40;99.90;;;;;;5072737;28;20111;-76
2023/12/02 08:52:20;;;;;;;42.15;20.65;;;-3.40;99.90;;;;;;5065961;28;20047;-76
2023/12/02 08:54:46;;;;;;;33.22;12.82;;;-3.40;99.90;;;;;;5062294;28;20035;-76
2023/12/02 08:57:11;;;;;;;34.65;15.85;;;-3.40;99.90;;;;;;5066949;28;20024;-76
2023/12/02 08:59:37;;;;;;;38.40;15.23;;;-3.40;99.90;;;;;;5072340;28;20089;-76
2023/12/02 09:02:05;;;;;;;42.65;15.68;;;-3.40;99.90;;;;;;5068408;28;20040;-76
2023/12/02 09:04:32;;;;;;;34.42;14.05;;;-3.40;99.90;;;;;;5069651;28;20056;-76
2023/12/02 09:06:58;;;;;;;53.90;24.30;;;-3.30;99.90;;;;;;5062446;28;20028;-76
2023/12/02 09:09:24;;;;;;;28.75;14.23;;;-3.30;99.90;;;;;;5066074;28;20540;-76
2023/12/02 09:11:50;;;;;;;28.30;13.43;;;-3.30;99.90;;;;;;5070502;28;20054;-77
2023/12/02 09:14:15;;;;;;;36.40;16.73;;;-3.30;99.90;;;;;;5071068;28;20039;-76
2023/12/02 09:16:46;;;;;;;34.83;14.80;;;-3.40;99.90;;;;;;5071361;28;20047;-76
2023/12/02 09:19:49;;;;;;;40.20;18.35;;;-3.40;99.90;;;;;;5071707;28;20062;-76
2023/12/02 09:22:44;;;;;;;35.30;15.20;;;-3.30;99.90;;;;;;5070486;28;20123;-76
2023/12/02 09:25:25;;;;;;;30.13;14.65;;;-3.40;99.90;;;;;;5070167;28;20035;-76
2023/12/02 09:28:06;;;;;;;29.33;15.10;;;-3.40;99.90;;;;;;5065379;28;20024;-76
2023/12/02 09:30:37;;;;;;;32.22;17.33;;;-3.40;99.90;;;;;;5070879;28;20410;-76
2023/12/02 09:33:06;;;;;;;36.95;15.38;;;-3.30;99.90;;;;;;5071426;28;20059;-80
2023/12/02 09:35:33;;;;;;;36.60;15.60;;;-3.30;99.90;;;;;;5070276;28;20068;-80
2023/12/02 09:38:00;;;;;;;24.90;12.40;;;-3.20;99.90;;;;;;5068529;28;20133;-80
2023/12/02 09:40:36;;;;;;;31.58;13.18;;;-3.20;99.90;;;;;;5069002;28;20032;-80
2023/12/02 09:43:21;;;;;;;27.30;12.55;;;-3.20;99.90;;;;;;5070434;28;20028;-80
2023/12/02 09:46:26;;;;;;;24.27;12.30;;;-3.30;99.90;;;;;;5068977;28;20037;-76
2023/12/02 09:49:07;;;;;;;29.15;14.55;;;-3.30;99.90;;;;;;5059522;28;20095;-76
2023/12/02 09:51:44;;;;;;;32.03;17.13;;;-3.20;99.90;;;;;;5067083;28;20028;-76
2023/12/02 09:54:21;;;;;;;29.15;14.65;;;-3.20;99.90;;;;;;5068017;28;20145;-77
2023/12/02 09:56:54;;;;;;;37.50;16.33;;;-3.30;99.90;;;;;;5071727;28;20094;-76
2023/12/02 09:59:26;;;;;;;32.78;13.63;;;-3.30;99.90;;;;;;5072140;28;20079;-79
2023/12/02 10:02:08;;;;;;;40.83;15.40;;;-3.30;99.90;;;;;;5072938;28;20035;-79
2023/12/02 10:04:55;;;;;;;35.80;17.75;;;-3.30;99.90;;;;;;5064908;28;20033;-79
2023/12/02 10:07:59;;;;;;;32.97;14.82;;;-3.20;99.90;;;;;;5071838;28;20382;-79
2023/12/02 10:10:31;;;;;;;31.75;16.77;;;-3.20;99.90;;;;;;5072546;28;20066;-79
2023/12/02 10:13:20;;;;;;;23.85;11.70;;;-3.20;99.90;;;;;;5070554;28;20071;-79
2023/12/02 10:15:49;;;;;;;33.35;17.48;;;-3.20;99.90;;;;;;5068884;28;20032;-80
2023/12/02 10:18:17;;;;;;;34.50;17.17;;;-3.10;99.90;;;;;;5086144;28;20036;-80
2023/12/02 10:20:44;;;;;;;40.17;19.17;;;-3.10;99.90;;;;;;5075195;28;20579;-76
2023/12/02 10:23:26;;;;;;;39.90;19.10;;;-2.90;99.90;;;;;;5068740;28;20044;-79
2023/12/02 10:26:04;;;;;;;30.90;14.88;;;-2.90;99.90;;;;;;5071296;28;20059;-76
2023/12/02 10:28:50;;;;;;;33.63;17.55;;;-3.00;99.90;;;;;;5059366;28;20371;-79
2023/12/02 10:31:35;;;;;;;20.45;11.70;;;-3.00;99.90;;;;;;5072491;28;20032;-79
2023/12/02 10:34:22;;;;;;;43.95;20.92;;;-3.10;99.90;;;;;;5072639;28;20552;-80
2023/12/02 10:36:51;;;;;;;35.60;16.58;;;-3.00;99.90;;;;;;5072665;28;20021;-79
2023/12/02 10:39:46;;;;;;;37.47;17.15;;;-3.00;99.90;;;;;;5071078;28;20017;-76
2023/12/02 10:42:26;;;;;;;33.35;15.55;;;-3.00;99.90;;;;;;5070987;28;20056;-76
2023/12/02 10:45:07;;;;;;;33.28;17.13;;;-2.90;99.90;;;;;;5071326;28;20032;-76
2023/12/02 10:47:33;;;;;;;32.13;15.20;;;-2.90;99.90;;;;;;5071045;28;20024;-79
2023/12/02 10:50:00;;;;;;;37.10;18.05;;;-2.90;99.90;;;;;;5072479;28;20474;-77
2023/12/02 10:52:30;;;;;;;35.42;18.40;;;-2.80;99.90;;;;;;5075150;28;20096;-77
2023/12/02 10:55:00;;;;;;;42.20;19.55;;;-2.80;99.90;;;;;;5075083;28;20025;-79
2023/12/02 10:57:26;;;;;;;35.15;17.38;;;-2.80;99.90;;;;;;5075947;28;20067;-77
2023/12/02 11:00:07;;;;;;;37.10;18.02;;;-2.80;99.90;;;;;;5075092;28;20067;-79
2023/12/02 11:02:50;;;;;;;34.83;17.63;;;-2.70;99.90;;;;;;5064973;28;20115;-79
2023/12/02 11:05:19;;;;;;;38.00;18.70;;;-2.70;99.90;;;;;;5076218;28;20533;-76
2023/12/02 11:07:56;;;;;;;37.63;18.95;;;-2.60;99.90;;;;;;5075166;28;20040;-79
2023/12/02 11:10:46;;;;;;;37.50;18.00;;;-2.60;99.90;;;;;;5076122;28;20024;-79
2023/12/02 11:13:18;;;;;;;27.42;13.85;;;-2.80;99.90;;;;;;5079507;28;20107;-79
2023/12/02 11:16:05;;;;;;;34.60;15.98;;;-2.80;99.90;;;;;;5075291;28;20481;-79
2023/12/02 11:18:55;;;;;;;31.88;14.38;;;-2.80;99.90;;;;;;5074824;28;20063;-77
2023/12/02 11:21:36;;;;;;;31.80;17.50;;;-2.80;99.90;;;;;;5074673;28;20112;-78
2023/12/02 11:24:35;;;;;;;36.38;16.17;;;-2.80;99.90;;;;;;5074611;28;20042;-77
2023/12/02 11:27:39;;;;;;;36.83;17.25;;;-2.90;99.90;;;;;;5064572;28;20047;-79
2023/12/02 11:30:11;;;;;;;36.55;19.10;;;-2.80;99.90;;;;;;5060743;28;20032;-76
2023/12/02 11:32:55;;;;;;;39.30;20.20;;;-2.80;99.90;;;;;;5073914;28;20076;-76
2023/12/02 11:35:47;;;;;;;33.95;18.83;;;-2.80;99.90;;;;;;5074610;28;20016;-76
2023/12/02 11:38:17;;;;;;;35.63;19.38;;;-2.80;99.90;;;;;;5052262;28;20056;-76
2023/12/02 11:41:05;;;;;;;46.72;19.88;;;-2.80;99.90;;;;;;5075317;28;20383;-76
2023/12/02 11:43:48;;;;;;;27.70;15.10;;;-2.70;99.90;;;;;;5074252;28;20036;-76
2023/12/02 11:46:18;;;;;;;39.92;21.52;;;-2.80;99.90;;;;;;5063937;28;20020;-78
2023/12/02 11:48:44;;;;;;;29.15;14.70;;;-2.80;99.90;;;;;;5074149;28;20021;-79
2023/12/02 11:51:13;;;;;;;41.08;19.42;;;-2.80;99.90;;;;;;5077098;28;20096;-76
2023/12/02 11:53:39;;;;;;;35.10;17.52;;;-2.70;99.90;;;;;;5073675;28;20016;-77
2023/12/02 11:56:12;;;;;;;41.05;20.80;;;-2.70;99.90;;;;;;5073971;28;20056;-79
2023/12/02 11:58:57;;;;;;;42.90;20.48;;;-2.70;99.90;;;;;;5075333;28;20024;-79
2023/12/02 12:01:41;;;;;;;43.20;21.75;;;-2.70;99.90;;;;;;5075379;28;20108;-77
2023/12/02 12:04:25;;;;;;;39.65;19.83;;;-2.70;99.90;;;;;;5061385;28;20499;-77
2023/12/02 12:07:23;;;;;;;43.63;20.25;;;-2.80;99.90;;;;;;5075897;28;20108;-79
2023/12/02 12:10:26;;;;;;;36.80;18.98;;;-2.70;99.90;;;;;;5074060;28;20500;-79
2023/12/02 12:12:56;;;;;;;61.00;33.05;;;-2.80;99.90;;;;;;5074112;28;20082;-79
2023/12/02 12:15:22;;;;;;;53.55;28.98;;;-2.80;99.90;;;;;;5075240;28;20062;-79
2023/12/02 12:17:47;;;;;;;46.10;23.90;;;-2.80;99.90;;;;;;5074948;28;20028;-76
2023/12/02 12:20:18;;;;;;;32.33;15.70;;;-2.90;99.90;;;;;;5060700;28;20013;-79
2023/12/02 12:22:44;;;;;;;95.57;41.03;;;-2.90;99.90;;;;;;5074816;28;20393;-77
2023/12/02 12:25:10;;;;;;;169.57;61.15;;;-2.90;99.90;;;;;;5073770;28;20024;-77
2023/12/02 12:27:36;;;;;;;115.28;40.65;;;-2.90;99.90;;;;;;5073282;28;20030;-79
2023/12/02 12:30:02;;;;;;;163.55;58.85;;;-2.90;99.90;;;;;;5075001;28;20023;-78
2023/12/02 12:32:28;;;;;;;46.65;20.42;;;-2.90;99.90;;;;;;5071541;28;20060;-79
2023/12/02 12:34:54;;;;;;;78.55;42.58;;;-3.00;99.90;;;;;;5079385;28;20021;-80
2023/12/02 12:37:19;;;;;;;101.63;54.70;;;-3.00;99.90;;;;;;5072935;28;20440;-80